sensor_id;sensor_type;location;lat;lon;timestamp;pressure;altitude;pressure_sealevel;temperature;humidity
73821;BME280;62150;43.582;1.456;2023-11-21T06:09:10;100157.75;;;11.16;100.00
73821;BME280;62150;43.582;1.456;2023-11-21T06:11:39;100163.91;;;11.12;100.00
73821;BME280;62150;43.582;1.456;2023-11-21T06:14:07;100163.53;;;11.21;100.00
73821;BME280;62150;43.582;1.456;2023-11-21T06:16:35;100168.81;;;11.18;100.00
73821;BME280;62150;43.582;1.456;2023-11-21T06:19:03;100170.13;;;11.28;100.00
73821;BME280;62150;43.582;1.456;2023-11-21T06:21:31;100173.78;;;11.43;100.00
73821;BME280;62150;43.582;1.456;2023-11-21T06:24:00;100170.34;;;11.22;100.00
73821;BME280;62150;43.582;1.456;2023-11-21T06:26:29;100185.38;;;11.11;100.00
73821;BME280;62150;43.582;1.456;2023-11-21T06:28:57;100180.28;;;11.31;100.00
73821;BME280;62150;43.582;1.456;2023-11-21T06:31:25;100178.31;;;11.16;100.00
73821;BME280;62150;43.582;1.456;2023-11-21T06:33:53;100166.41;;;11.35;100.00
73821;BME280;62150;43.582;1.456;2023-11-21T06:36:21;100176.53;;;11.18;100.00
73821;BME280;62150;43.582;1.456;2023-11-21T06:38:48;100168.56;;;11.24;100.00
73821;BME280;62150;43.582;1.456;2023-11-21T06:41:15;100166.34;;;11.37;100.00
73821;BME280;62150;43.582;1.456;2023-11-21T06:43:44;100172.69;;;11.28;100.00
73821;BME280;62150;43.582;1.456;2023-11-21T06:46:12;100172.69;;;11.08;100.00
73821;BME280;62150;43.582;1.456;2023-11-21T06:48:42;100173.78;;;11.43;100.00
73821;BME280;62150;43.582;1.456;2023-11-21T06:51:09;100176.94;;;11.29;100.00
73821;BME280;62150;43.582;1.456;2023-11-21T06:53:37;100174.47;;;11.26;100.00
73821;BME280;62150;43.582;1.456;2023-11-21T06:56:16;100172.50;;;11.33;100.00
73821;BME280;62150;43.582;1.456;2023-11-21T06:58:45;100169.63;;;11.40;100.00
73821;BME280;62150;43.582;1.456;2023-11-21T07:01:13;100172.81;;;11.46;100.00
73821;BME280;62150;43.582;1.456;2023-11-21T07:03:44;100170.13;;;11.28;100.00
73821;BME280;62150;43.582;1.456;2023-11-21T07:06:12;100178.47;;;11.33;100.00
73821;BME280;62150;43.582;1.456;2023-11-21T07:08:39;100180.69;;;11.43;100.00
73821;BME280;62150;43.582;1.456;2023-11-21T07:11:07;100181.81;;;11.56;100.00
73821;BME280;62150;43.582;1.456;2023-11-21T07:13:35;100181.38;;;11.66;100.00
73821;BME280;62150;43.582;1.456;2023-11-21T07:16:04;100172.28;;;11.58;100.00
73821;BME280;62150;43.582;1.456;2023-11-21T07:18:32;100179.03;;;11.60;100.00
73821;BME280;62150;43.582;1.456;2023-11-21T07:20:59;100182.72;;;11.75;100.00
73821;BME280;62150;43.582;1.456;2023-11-21T07:23:28;100192.25;;;11.73;100.00
73821;BME280;62150;43.582;1.456;2023-11-21T07:25:56;100188.03;;;11.50;100.00
73821;BME280;62150;43.582;1.456;2023-11-21T07:28:24;100201.75;;;11.51;100.00
73821;BME280;62150;43.582;1.456;2023-11-21T07:30:52;100200.72;;;11.34;100.00
73821;BME280;62150;43.582;1.456;2023-11-21T07:33:21;100212.25;;;11.66;100.00
73821;BME280;62150;43.582;1.456;2023-11-21T07:35:49;100212.38;;;11.63;100.00
73821;BME280;62150;43.582;1.456;2023-11-21T07:38:16;100220.03;;;11.65;100.00
73821;BME280;62150;43.582;1.456;2023-11-21T07:40:44;100213.72;;;11.72;100.00
73821;BME280;62150;43.582;1.456;2023-11-21T07:43:12;100217.97;;;11.53;100.00
73821;BME280;62150;43.582;1.456;2023-11-21T07:45:39;100223.63;;;11.61;100.00
73821;BME280;62150;43.582;1.456;2023-11-21T07:48:09;100221.56;;;11.69;100.00
73821;BME280;62150;43.582;1.456;2023-11-21T07:50:38;100225.06;;;11.68;100.00
73821;BME280;62150;43.582;1.456;2023-11-21T07:53:06;100230.78;;;11.95;100.00
73821;BME280;62150;43.582;1.456;2023-11-21T07:55:33;100229.19;;;11.92;100.00
73821;BME280;62150;43.582;1.456;2023-11-21T07:58:02;100234.03;;;11.58;100.00
73821;BME280;62150;43.582;1.456;2023-11-21T08:00:30;100234.09;;;11.78;100.00
73821;BME280;62150;43.582;1.456;2023-11-21T08:02:57;100249.38;;;11.61;100.00
73821;BME280;62150;43.582;1.456;2023-11-21T08:05:25;100244.88;;;11.86;100.00
73821;BME280;62150;43.582;1.456;2023-11-21T08:07:54;100245.50;;;11.71;100.00
73821;BME280;62150;43.582;1.456;2023-11-21T08:10:22;100250.81;;;11.88;100.00
73821;BME280;62150;43.582;1.456;2023-11-21T08:12:49;100254.41;;;11.84;100.00
73821;BME280;62150;43.582;1.456;2023-11-21T08:15:17;100248.28;;;12.07;100.00
73821;BME280;62150;43.582;1.456;2023-11-21T08:17:45;100254.41;;;12.04;100.00
73821;BME280;62150;43.582;1.456;2023-11-21T08:20:13;100243.53;;;11.98;100.00
73821;BME280;62150;43.582;1.456;2023-11-21T08:22:42;100250.66;;;12.12;100.00
73821;BME280;62150;43.582;1.456;2023-11-21T08:25:11;100239.63;;;12.47;100.00
73821;BME280;62150;43.582;1.456;2023-11-21T08:27:39;100243.66;;;12.53;100.00
73821;BME280;62150;43.582;1.456;2023-11-21T08:30:07;100251.97;;;12.01;100.00
73821;BME280;62150;43.582;1.456;2023-11-21T08:32:35;100252.47;;;12.10;100.00
73821;BME280;62150;43.582;1.456;2023-11-21T08:35:02;100255.84;;;12.49;100.00
73821;BME280;62150;43.582;1.456;2023-11-21T08:37:31;100252.88;;;12.19;100.00
73821;BME280;62150;43.582;1.456;2023-11-21T08:40:02;100250.66;;;12.12;100.00
73821;BME280;62150;43.582;1.456;2023-11-21T08:42:31;100257.38;;;12.34;100.00
73821;BME280;62150;43.582;1.456;2023-11-21T08:44:59;100254.78;;;12.53;100.00
73821;BME280;62150;43.582;1.456;2023-11-21T08:47:26;100254.09;;;12.31;100.00
73821;BME280;62150;43.582;1.456;2023-11-21T08:49:54;100258.78;;;12.02;100.00
73821;BME280;62150;43.582;1.456;2023-11-21T08:52:21;100254.09;;;12.31;100.00
73821;BME280;62150;43.582;1.456;2023-11-21T08:54:49;100247.38;;;12.47;100.00
73821;BME280;62150;43.582;1.456;2023-11-21T08:57:22;100252.03;;;12.39;100.00
73821;BME280;62150;43.582;1.456;2023-11-21T08:59:51;100250.00;;;12.64;100.00
73821;BME280;62150;43.582;1.456;2023-11-21T09:02:21;100251.03;;;12.60;100.00
73821;BME280;62150;43.582;1.456;2023-11-21T09:04:49;100244.56;;;12.33;100.00
73821;BME280;62150;43.582;1.456;2023-11-21T09:07:18;100257.06;;;12.22;100.00
73821;BME280;62150;43.582;1.456;2023-11-21T09:09:46;100252.28;;;12.33;100.00
73821;BME280;62150;43.582;1.456;2023-11-21T09:12:15;100253.34;;;12.66;100.00
73821;BME280;62150;43.582;1.456;2023-11-21T09:14:43;100244.56;;;12.52;100.00
73821;BME280;62150;43.582;1.456;2023-11-21T09:17:12;100256.38;;;12.18;100.00
73821;BME280;62150;43.582;1.456;2023-11-21T09:19:40;100247.78;;;12.38;100.00
73821;BME280;62150;43.582;1.456;2023-11-21T09:22:09;100255.84;;;12.49;100.00
73821;BME280;62150;43.582;1.456;2023-11-21T09:24:37;100250.84;;;12.46;100.00
73821;BME280;62150;43.582;1.456;2023-11-21T09:27:04;100250.41;;;12.74;100.00
73821;BME280;62150;43.582;1.456;2023-11-21T09:29:32;100250.97;;;12.62;100.00
73821;BME280;62150;43.582;1.456;2023-11-21T09:31:59;100248.91;;;12.87;100.00
73821;BME280;62150;43.582;1.456;2023-11-21T09:34:28;100256.41;;;12.74;100.00
73821;BME280;62150;43.582;1.456;2023-11-21T09:36:58;100259.78;;;12.94;100.00
73821;BME280;62150;43.582;1.456;2023-11-21T09:39:25;100250.88;;;12.82;100.00
73821;BME280;62150;43.582;1.456;2023-11-21T09:42:03;100261.06;;;12.66;100.00
73821;BME280;62150;43.582;1.456;2023-11-21T09:44:35;100263.97;;;12.96;100.00
73821;BME280;62150;43.582;1.456;2023-11-21T09:47:04;100262.13;;;12.81;100.00
73821;BME280;62150;43.582;1.456;2023-11-21T09:49:39;100265.16;;;12.89;100.00
73821;BME280;62150;43.582;1.456;2023-11-21T09:52:09;100256.03;;;12.82;100.00
73821;BME280;62150;43.582;1.456;2023-11-21T09:54:44;100255.81;;;12.87;100.00
73821;BME280;62150;43.582;1.456;2023-11-21T09:57:14;100262.38;;;12.56;100.00
73821;BME280;62150;43.582;1.456;2023-11-21T09:59:42;100258.50;;;12.66;100.00
73821;BME280;62150;43.582;1.456;2023-11-21T10:02:11;100249.81;;;13.05;100.00
73821;BME280;62150;43.582;1.456;2023-11-21T10:04:41;100259.66;;;13.16;100.00
73821;BME280;62150;43.582;1.456;2023-11-21T10:07:09;100255.13;;;13.02;100.00
73821;BME280;62150;43.582;1.456;2023-11-21T10:09:37;100262.00;;;13.20;100.00
73821;BME280;62150;43.582;1.456;2023-11-21T10:12:07;100255.94;;;13.02;100.00
73821;BME280;62150;43.582;1.456;2023-11-21T10:14:36;100250.88;;;13.01;100.00
73821;BME280;62150;43.582;1.456;2023-11-21T10:17:05;100257.91;;;12.97;100.00
73821;BME280;62150;43.582;1.456;2023-11-21T10:19:36;100247.03;;;13.09;100.00
73821;BME280;62150;43.582;1.456;2023-11-21T10:22:06;100252.88;;;12.94;100.00
73821;BME280;62150;43.582;1.456;2023-11-21T10:24:35;100262.09;;;13.53;100.00
73821;BME280;62150;43.582;1.456;2023-11-21T10:27:04;100257.25;;;13.30;100.00
73821;BME280;62150;43.582;1.456;2023-11-21T10:29:31;100255.63;;;13.27;100.00
73821;BME280;62150;43.582;1.456;2023-11-21T10:32:02;100249.72;;;13.25;100.00
73821;BME280;62150;43.582;1.456;2023-11-21T10:34:31;100245.47;;;13.59;100.00
73821;BME280;62150;43.582;1.456;2023-11-21T10:37:12;100253.53;;;13.70;100.00
73821;BME280;62150;43.582;1.456;2023-11-21T10:39:41;100253.75;;;13.65;100.00
73821;BME280;62150;43.582;1.456;2023-11-21T10:42:10;100247.97;;;13.26;100.00
73821;BME280;62150;43.582;1.456;2023-11-21T10:44:37;100247.63;;;13.51;100.00
73821;BME280;62150;43.582;1.456;2023-11-21T10:47:09;100246.00;;;13.65;100.00
73821;BME280;62150;43.582;1.456;2023-11-21T10:49:38;100244.56;;;13.25;100.00
73821;BME280;62150;43.582;1.456;2023-11-21T10:52:06;100253.53;;;13.35;100.00
73821;BME280;62150;43.582;1.456;2023-11-21T10:54:38;100249.88;;;13.57;100.00
73821;BME280;62150;43.582;1.456;2023-11-21T10:57:06;100247.69;;;13.66;100.00
73821;BME280;62150;43.582;1.456;2023-11-21T10:59:34;100240.69;;;13.17;100.00
73821;BME280;62150;43.582;1.456;2023-11-21T11:02:10;100241.38;;;13.37;100.00
73821;BME280;62150;43.582;1.456;2023-11-21T11:04:40;100241.06;;;13.26;100.00
73821;BME280;62150;43.582;1.456;2023-11-21T11:07:09;100238.59;;;13.42;100.00
73821;BME280;62150;43.582;1.456;2023-11-21T11:09:39;100237.53;;;13.46;100.00
73821;BME280;62150;43.582;1.456;2023-11-21T11:12:07;100238.84;;;13.19;100.00
73821;BME280;62150;43.582;1.456;2023-11-21T11:14:36;100234.28;;;13.93;100.00
73821;BME280;62150;43.582;1.456;2023-11-21T11:17:04;100229.19;;;13.41;100.00
73821;BME280;62150;43.582;1.456;2023-11-21T11:19:34;100228.03;;;13.47;100.00
73821;BME280;62150;43.582;1.456;2023-11-21T11:22:12;100233.72;;;13.70;100.00
73821;BME280;62150;43.582;1.456;2023-11-21T11:24:59;100250.38;;;13.12;100.00
73821;BME280;62150;43.582;1.456;2023-11-21T11:27:37;100256.63;;;13.25;100.00
73821;BME280;62150;43.582;1.456;2023-11-21T11:30:26;100256.91;;;13.19;100.00
73821;BME280;62150;43.582;1.456;2023-11-21T11:33:06;100256.78;;;13.03;100.00
73821;BME280;62150;43.582;1.456;2023-11-21T11:35:44;100250.81;;;13.38;100.00
73821;BME280;62150;43.582;1.456;2023-11-21T11:38:15;100253.53;;;13.70;100.00
73821;BME280;62150;43.582;1.456;2023-11-21T11:40:46;100244.34;;;13.82;100.00
73821;BME280;62150;43.582;1.456;2023-11-21T11:43:16;100247.28;;;13.91;100.00
73821;BME280;62150;43.582;1.456;2023-11-21T11:45:51;100236.00;;;13.77;100.00
73821;BME280;62150;43.582;1.456;2023-11-21T11:48:22;100238.00;;;13.87;100.00
73821;BME280;62150;43.582;1.456;2023-11-21T11:51:03;100235.16;;;13.76;100.00
73821;BME280;62150;43.582;1.456;2023-11-21T11:53:36;100222.81;;;13.98;100.00
73821;BME280;62150;43.582;1.456;2023-11-21T11:56:27;100210.81;;;13.97;100.00
73821;BME280;62150;43.582;1.456;2023-11-21T11:58:58;100214.53;;;13.92;100.00
73821;BME280;62150;43.582;1.456;2023-11-21T12:01:29;100207.34;;;14.14;100.00
73821;BME280;62150;43.582;1.456;2023-11-21T12:04:24;100202.50;;;14.24;100.00
73821;BME280;62150;43.582;1.456;2023-11-21T12:06:59;100201.00;;;14.53;100.00
73821;BME280;62150;43.582;1.456;2023-11-21T12:09:29;100192.19;;;14.24;100.00
73821;BME280;62150;43.582;1.456;2023-11-21T12:11:59;100195.03;;;14.19;100.00
73821;BME280;62150;43.582;1.456;2023-11-21T12:14:27;100191.63;;;14.34;100.00
73821;BME280;62150;43.582;1.456;2023-11-21T12:16:55;100188.84;;;14.06;100.00
73821;BME280;62150;43.582;1.456;2023-11-21T12:19:22;100189.69;;;14.22;100.00
73821;BME280;62150;43.582;1.456;2023-11-21T12:21:50;100181.84;;;14.08;100.00
73821;BME280;62150;43.582;1.456;2023-11-21T12:24:18;100183.00;;;14.02;100.00
73821;BME280;62150;43.582;1.456;2023-11-21T12:26:45;100187.31;;;14.02;100.00
73821;BME280;62150;43.582;1.456;2023-11-21T12:29:15;100188.00;;;14.21;100.00
73821;BME280;62150;43.582;1.456;2023-11-21T12:31:42;100197.81;;;13.66;100.00
73821;BME280;62150;43.582;1.456;2023-11-21T12:34:10;100200.31;;;14.00;100.00
73821;BME280;62150;43.582;1.456;2023-11-21T12:36:39;100197.84;;;14.30;100.00
73821;BME280;62150;43.582;1.456;2023-11-21T12:39:07;100189.06;;;14.01;100.00
73821;BME280;62150;43.582;1.456;2023-11-21T12:41:36;100209.50;;;13.38;100.00
73821;BME280;62150;43.582;1.456;2023-11-21T12:44:09;100211.69;;;13.63;100.00
73821;BME280;62150;43.582;1.456;2023-11-21T12:46:42;100211.53;;;13.66;100.00
73821;BME280;62150;43.582;1.456;2023-11-21T12:49:12;100214.50;;;13.76;100.00
73821;BME280;62150;43.582;1.456;2023-11-21T12:51:44;100215.22;;;13.95;100.00
73821;BME280;62150;43.582;1.456;2023-11-21T12:54:13;100213.97;;;14.20;100.00
73821;BME280;62150;43.582;1.456;2023-11-21T12:56:41;100211.63;;;13.82;100.00
73821;BME280;62150;43.582;1.456;2023-11-21T12:59:13;100216.47;;;13.54;100.00
73821;BME280;62150;43.582;1.456;2023-11-21T13:01:44;100221.72;;;13.69;100.00
73821;BME280;62150;43.582;1.456;2023-11-21T13:04:12;100229.13;;;13.93;100.00
73821;BME280;62150;43.582;1.456;2023-11-21T13:06:40;100221.19;;;13.80;100.00
73821;BME280;62150;43.582;1.456;2023-11-21T13:09:08;100214.44;;;14.26;100.00
73821;BME280;62150;43.582;1.456;2023-11-21T13:11:37;100214.88;;;14.34;100.00
73821;BME280;62150;43.582;1.456;2023-11-21T13:14:07;100223.56;;;14.00;100.00
73821;BME280;62150;43.582;1.456;2023-11-21T13:16:37;100224.94;;;13.90;100.00
73821;BME280;62150;43.582;1.456;2023-11-21T13:19:09;100222.19;;;14.11;100.00
73821;BME280;62150;43.582;1.456;2023-11-21T13:21:37;100233.19;;;13.64;100.00
73821;BME280;62150;43.582;1.456;2023-11-21T13:24:06;100221.03;;;13.66;100.00
73821;BME280;62150;43.582;1.456;2023-11-21T13:26:37;100222.94;;;14.13;100.00
73821;BME280;62150;43.582;1.456;2023-11-21T13:29:04;100222.09;;;13.62;100.00
73821;BME280;62150;43.582;1.456;2023-11-21T13:31:32;100219.81;;;13.56;100.00
73821;BME280;62150;43.582;1.456;2023-11-21T13:34:02;100227.25;;;13.62;100.00
73821;BME280;62150;43.582;1.456;2023-11-21T13:36:36;100225.16;;;13.35;100.00
73821;BME280;62150;43.582;1.456;2023-11-21T13:39:03;100235.53;;;13.68;100.00
73821;BME280;62150;43.582;1.456;2023-11-21T13:41:33;100226.22;;;13.49;100.00
73821;BME280;62150;43.582;1.456;2023-11-21T13:44:04;100229.69;;;13.65;100.00
73821;BME280;62150;43.582;1.456;2023-11-21T13:46:41;100214.97;;;13.67;100.00
73821;BME280;62150;43.582;1.456;2023-11-21T13:49:09;100221.56;;;13.72;100.00
73821;BME280;62150;43.582;1.456;2023-11-21T13:51:38;100210.88;;;13.96;100.00
73821;BME280;62150;43.582;1.456;2023-11-21T13:54:09;100205.25;;;14.21;100.00
73821;BME280;62150;43.582;1.456;2023-11-21T13:56:36;100210.84;;;13.80;100.00
73821;BME280;62150;43.582;1.456;2023-11-21T13:59:06;100212.84;;;14.08;100.00
73821;BME280;62150;43.582;1.456;2023-11-21T14:01:44;100208.44;;;13.77;100.00
73821;BME280;62150;43.582;1.456;2023-11-21T14:04:22;100206.13;;;14.37;100.00
73821;BME280;62150;43.582;1.456;2023-11-21T14:07:06;100208.50;;;13.75;100.00
73821;BME280;62150;43.582;1.456;2023-11-21T14:09:51;100211.78;;;13.79;100.00
73821;BME280;62150;43.582;1.456;2023-11-21T14:12:19;100214.03;;;14.18;100.00
73821;BME280;62150;43.582;1.456;2023-11-21T14:14:46;100215.59;;;13.88;100.00
73821;BME280;62150;43.582;1.456;2023-11-21T14:17:15;100209.66;;;14.03;100.00
73821;BME280;62150;43.582;1.456;2023-11-21T14:19:42;100221.09;;;13.82;100.00
73821;BME280;62150;43.582;1.456;2023-11-21T14:22:11;100217.31;;;13.71;100.00
73821;BME280;62150;43.582;1.456;2023-11-21T14:24:40;100223.28;;;13.89;100.00
73821;BME280;62150;43.582;1.456;2023-11-21T14:27:11;100224.38;;;13.85;100.00
73821;BME280;62150;43.582;1.456;2023-11-21T14:29:39;100218.19;;;13.88;100.00
73821;BME280;62150;43.582;1.456;2023-11-21T14:32:09;100223.28;;;13.89;100.00
73821;BME280;62150;43.582;1.456;2023-11-21T14:34:37;100233.28;;;13.95;100.00
73821;BME280;62150;43.582;1.456;2023-11-21T14:37:06;100228.94;;;13.63;100.00
73821;BME280;62150;43.582;1.456;2023-11-21T14:39:35;100233.97;;;13.49;100.00
73821;BME280;62150;43.582;1.456;2023-11-21T14:42:09;100231.75;;;13.75;100.00
73821;BME280;62150;43.582;1.456;2023-11-21T14:44:36;100232.69;;;13.90;100.00
73821;BME280;62150;43.582;1.456;2023-11-21T14:47:07;100229.94;;;13.93;100.00
73821;BME280;62150;43.582;1.456;2023-11-21T14:49:41;100226.00;;;14.03;100.00
73821;BME280;62150;43.582;1.456;2023-11-21T14:52:18;100234.50;;;14.05;100.00
73821;BME280;62150;43.582;1.456;2023-11-21T14:55:00;100242.69;;;13.81;100.00
73821;BME280;62150;43.582;1.456;2023-11-21T14:57:41;100235.09;;;14.11;100.00
73821;BME280;62150;43.582;1.456;2023-11-21T15:00:15;100242.84;;;14.11;100.00
73821;BME280;62150;43.582;1.456;2023-11-21T15:03:03;100241.22;;;13.75;100.00
73821;BME280;62150;43.582;1.456;2023-11-21T15:05:48;100234.06;;;13.97;100.00
73821;BME280;62150;43.582;1.456;2023-11-21T15:08:15;100238.34;;;13.81;100.00
73821;BME280;62150;43.582;1.456;2023-11-21T15:10:49;100236.94;;;13.91;100.00
73821;BME280;62150;43.582;1.456;2023-11-21T15:13:19;100239.88;;;13.85;100.00
73821;BME280;62150;43.582;1.456;2023-11-21T15:15:48;100245.19;;;13.65;100.00
73821;BME280;62150;43.582;1.456;2023-11-21T15:18:14;100230.94;;;13.91;100.00
73821;BME280;62150;43.582;1.456;2023-11-21T15:20:42;100234.31;;;13.58;100.00
73821;BME280;62150;43.582;1.456;2023-11-21T15:23:10;100231.00;;;14.06;100.00
73821;BME280;62150;43.582;1.456;2023-11-21T15:25:39;100237.28;;;13.85;100.00
73821;BME280;62150;43.582;1.456;2023-11-21T15:28:08;100244.31;;;13.99;100.00
73821;BME280;62150;43.582;1.456;2023-11-21T15:30:35;100248.97;;;13.75;100.00
73821;BME280;62150;43.582;1.456;2023-11-21T15:33:03;100252.16;;;13.80;100.00
73821;BME280;62150;43.582;1.456;2023-11-21T15:35:30;100257.34;;;13.80;100.00
73821;BME280;62150;43.582;1.456;2023-11-21T15:37:58;100262.78;;;13.91;100.00
73821;BME280;62150;43.582;1.456;2023-11-21T15:40:26;100266.06;;;13.78;100.00
73821;BME280;62150;43.582;1.456;2023-11-21T15:42:53;100263.09;;;13.85;100.00
73821;BME280;62150;43.582;1.456;2023-11-21T15:45:22;100274.03;;;13.56;100.00
73821;BME280;62150;43.582;1.456;2023-11-21T15:47:53;100274.94;;;13.72;100.00
73821;BME280;62150;43.582;1.456;2023-11-21T15:50:21;100278.38;;;13.72;100.00
73821;BME280;62150;43.582;1.456;2023-11-21T15:52:48;100268.78;;;13.57;100.00
73821;BME280;62150;43.582;1.456;2023-11-21T15:55:16;100268.44;;;13.48;100.00
73821;BME280;62150;43.582;1.456;2023-11-21T15:57:45;100274.31;;;13.32;100.00
73821;BME280;62150;43.582;1.456;2023-11-21T16:00:14;100281.78;;;13.73;100.00
73821;BME280;62150;43.582;1.456;2023-11-21T16:02:47;100283.00;;;13.66;100.00
73821;BME280;62150;43.582;1.456;2023-11-21T16:05:15;100281.47;;;13.62;100.00
73821;BME280;62150;43.582;1.456;2023-11-21T16:07:43;100281.78;;;13.56;100.00
73821;BME280;62150;43.582;1.456;2023-11-21T16:10:11;100289.97;;;13.47;100.00
73821;BME280;62150;43.582;1.456;2023-11-21T16:12:41;100304.56;;;13.48;100.00
73821;BME280;62150;43.582;1.456;2023-11-21T16:15:09;100304.41;;;13.68;100.00
73821;BME280;62150;43.582;1.456;2023-11-21T16:17:38;100301.22;;;13.46;100.00
73821;BME280;62150;43.582;1.456;2023-11-21T16:20:09;100304.72;;;13.26;100.00
73821;BME280;62150;43.582;1.456;2023-11-21T16:22:39;100294.53;;;13.41;100.00
73821;BME280;62150;43.582;1.456;2023-11-21T16:25:07;100307.66;;;13.54;100.00
73821;BME280;62150;43.582;1.456;2023-11-21T16:27:38;100312.53;;;13.24;100.00
73821;BME280;62150;43.582;1.456;2023-11-21T16:30:07;100311.41;;;13.49;100.00
73821;BME280;62150;43.582;1.456;2023-11-21T16:32:36;100311.34;;;13.31;100.00
73821;BME280;62150;43.582;1.456;2023-11-21T16:35:04;100312.28;;;13.12;100.00
73821;BME280;62150;43.582;1.456;2023-11-21T16:37:33;100312.53;;;13.24;100.00
73821;BME280;62150;43.582;1.456;2023-11-21T16:40:00;100331.34;;;13.45;100.00
73821;BME280;62150;43.582;1.456;2023-11-21T16:42:33;100323.22;;;13.53;100.00
73821;BME280;62150;43.582;1.456;2023-11-21T16:45:08;100330.22;;;13.68;100.00
73821;BME280;62150;43.582;1.456;2023-11-21T16:47:36;100332.63;;;13.54;100.00
73821;BME280;62150;43.582;1.456;2023-11-21T16:50:05;100342.38;;;13.30;100.00
73821;BME280;62150;43.582;1.456;2023-11-21T16:52:38;100337.63;;;13.39;100.00
73821;BME280;62150;43.582;1.456;2023-11-21T16:55:08;100343.22;;;13.49;100.00
73821;BME280;62150;43.582;1.456;2023-11-21T16:57:36;100349.50;;;13.61;100.00
73821;BME280;62150;43.582;1.456;2023-11-21T17:00:08;100346.63;;;13.67;100.00
73821;BME280;62150;43.582;1.456;2023-11-21T17:02:38;100362.84;;;13.52;100.00
73821;BME280;62150;43.582;1.456;2023-11-21T17:05:07;100365.88;;;13.43;100.00
73821;BME280;62150;43.582;1.456;2023-11-21T17:07:39;100368.19;;;13.49;100.00
73821;BME280;62150;43.582;1.456;2023-11-21T17:10:07;100367.22;;;13.68;100.00
73821;BME280;62150;43.582;1.456;2023-11-21T17:12:37;100376.34;;;13.39;100.00
73821;BME280;62150;43.582;1.456;2023-11-21T17:15:05;100375.56;;;13.19;100.00
73821;BME280;62150;43.582;1.456;2023-11-21T17:17:34;100382.34;;;13.21;100.00
73821;BME280;62150;43.582;1.456;2023-11-21T17:20:03;100391.63;;;13.25;100.00
73821;BME280;62150;43.582;1.456;2023-11-21T17:22:36;100391.63;;;13.25;100.00
73821;BME280;62150;43.582;1.456;2023-11-21T17:25:08;100394.34;;;13.22;100.00
73821;BME280;62150;43.582;1.456;2023-11-21T17:27:36;100389.09;;;13.43;100.00
73821;BME280;62150;43.582;1.456;2023-11-21T17:30:04;100396.63;;;13.09;100.00
73821;BME280;62150;43.582;1.456;2023-11-21T17:32:32;100396.91;;;13.22;100.00
73821;BME280;62150;43.582;1.456;2023-11-21T17:35:01;100401.78;;;13.09;100.00
73821;BME280;62150;43.582;1.456;2023-11-21T17:37:28;100400.13;;;13.27;100.00
73821;BME280;62150;43.582;1.456;2023-11-21T17:39:56;100413.03;;;13.27;100.00
73821;BME280;62150;43.582;1.456;2023-11-21T17:42:25;100406.34;;;13.23;100.00
73821;BME280;62150;43.582;1.456;2023-11-21T17:44:54;100409.34;;;13.33;100.00
73821;BME280;62150;43.582;1.456;2023-11-21T17:47:22;100421.81;;;13.23;100.00
73821;BME280;62150;43.582;1.456;2023-11-21T17:49:52;100424.56;;;13.00;100.00
73821;BME280;62150;43.582;1.456;2023-11-21T17:52:20;100425.63;;;13.15;100.00
73821;BME280;62150;43.582;1.456;2023-11-21T17:54:48;100431.50;;;13.37;100.00
73821;BME280;62150;43.582;1.456;2023-11-21T17:57:16;100431.47;;;12.99;100.00
73821;BME280;62150;43.582;1.456;2023-11-21T17:59:45;100428.72;;;13.23;100.00
73821;BME280;62150;43.582;1.456;2023-11-21T18:02:16;100428.75;;;13.02;100.00
73821;BME280;62150;43.582;1.456;2023-11-21T18:04:44;100432.16;;;13.03;100.00
73821;BME280;62150;43.582;1.456;2023-11-21T18:07:12;100427.28;;;12.97;100.00
73821;BME280;62150;43.582;1.456;2023-11-21T18:09:39;100430.50;;;13.02;100.00
73821;BME280;62150;43.582;1.456;2023-11-21T18:12:08;100434.88;;;13.00;100.00
73821;BME280;62150;43.582;1.456;2023-11-21T18:14:35;100437.25;;;13.04;100.00
73821;BME280;62150;43.582;1.456;2023-11-21T18:17:05;100435.44;;;13.06;100.00
73821;BME280;62150;43.582;1.456;2023-11-21T18:19:34;100446.03;;;13.39;100.00
73821;BME280;62150;43.582;1.456;2023-11-21T18:22:01;100441.34;;;12.90;100.00
73821;BME280;62150;43.582;1.456;2023-11-21T18:24:29;100453.19;;;12.94;100.00
73821;BME280;62150;43.582;1.456;2023-11-21T18:26:56;100445.59;;;12.91;100.00
73821;BME280;62150;43.582;1.456;2023-11-21T18:29:24;100447.13;;;12.95;100.00
73821;BME280;62150;43.582;1.456;2023-11-21T18:31:52;100434.38;;;12.92;100.00
73821;BME280;62150;43.582;1.456;2023-11-21T18:34:21;100435.91;;;12.96;100.00
73821;BME280;62150;43.582;1.456;2023-11-21T18:36:49;100436.53;;;13.21;100.00
73821;BME280;62150;43.582;1.456;2023-11-21T18:39:17;100435.66;;;13.02;100.00
73821;BME280;62150;43.582;1.456;2023-11-21T18:41:45;100427.50;;;13.11;100.00
73821;BME280;62150;43.582;1.456;2023-11-21T18:44:12;100436.94;;;12.92;100.00
73821;BME280;62150;43.582;1.456;2023-11-21T18:46:40;100433.06;;;13.02;100.00
73821;BME280;62150;43.582;1.456;2023-11-21T18:49:08;100438.06;;;12.86;100.00
73821;BME280;62150;43.582;1.456;2023-11-21T18:51:37;100441.50;;;13.05;100.00
73821;BME280;62150;43.582;1.456;2023-11-21T18:54:05;100445.59;;;12.91;100.00
73821;BME280;62150;43.582;1.456;2023-11-21T18:56:32;100441.13;;;13.15;100.00
73821;BME280;62150;43.582;1.456;2023-11-21T18:59:00;100448.16;;;13.11;100.00
73821;BME280;62150;43.582;1.456;2023-11-21T19:01:29;100448.38;;;13.25;100.00